createdAt,value
2022-08-21T00:02:30.500Z,20.44
2022-08-21T00:05:42.231Z,20.84
2022-08-21T00:08:48.599Z,20.97
2022-08-21T00:11:55.000Z,20.44
2022-08-21T00:15:01.103Z,20.70
2022-08-21T00:18:09.582Z,19.84
2022-08-21T00:21:17.720Z,19.63
2022-08-21T00:24:25.934Z,19.72
2022-08-21T00:27:32.149Z,19.71
2022-08-21T00:30:39.202Z,18.80
2022-08-21T00:33:46.387Z,18.67
2022-08-21T00:36:54.214Z,19.30
2022-08-21T00:40:00.666Z,19.33
2022-08-21T00:43:10.077Z,19.39
2022-08-21T00:46:16.372Z,19.50
2022-08-21T00:49:22.800Z,18.98
2022-08-21T00:52:34.321Z,19.14
2022-08-21T00:55:40.973Z,19.01
2022-08-21T00:58:48.041Z,19.10
2022-08-21T01:01:59.535Z,18.64
2022-08-21T01:05:06.999Z,18.45
2022-08-21T01:08:16.292Z,19.21
2022-08-21T01:11:23.002Z,19.34
2022-08-21T01:14:29.746Z,19.44
2022-08-21T01:17:37.627Z,19.12
2022-08-21T01:20:47.979Z,18.61
2022-08-21T01:23:59.823Z,18.84
2022-08-21T01:27:07.000Z,18.85
2022-08-21T01:30:16.980Z,18.64
2022-08-21T01:33:26.367Z,19.20
2022-08-21T01:36:33.457Z,19.34
2022-08-21T01:39:41.930Z,18.91
2022-08-21T01:42:49.960Z,18.29
2022-08-21T01:45:56.166Z,18.86
2022-08-21T01:49:02.374Z,19.09
2022-08-21T01:52:09.508Z,18.64
2022-08-21T01:55:18.975Z,18.90
2022-08-21T01:58:25.246Z,19.16
2022-08-21T02:01:31.551Z,18.99
2022-08-21T02:04:38.034Z,19.09
2022-08-21T02:07:48.211Z,19.38
2022-08-21T02:10:55.894Z,18.65
2022-08-21T02:14:02.481Z,18.92
2022-08-21T02:17:09.912Z,19.03
2022-08-21T02:20:20.911Z,18.86
2022-08-21T02:23:27.733Z,19.21
2022-08-21T02:26:35.627Z,19.23
2022-08-21T02:29:42.088Z,19.06
2022-08-21T02:32:49.095Z,18.73
2022-08-21T02:35:56.206Z,19.10
2022-08-21T02:39:02.188Z,18.97
2022-08-21T02:42:10.055Z,19.27
2022-08-21T02:45:17.391Z,18.73
2022-08-21T02:48:26.464Z,18.18
2022-08-21T02:51:32.780Z,18.17
2022-08-21T02:54:39.107Z,18.75
2022-08-21T02:57:46.828Z,19.47
2022-08-21T03:00:53.763Z,19.71
2022-08-21T03:04:00.134Z,19.87
2022-08-21T03:07:06.776Z,19.88
2022-08-21T03:10:18.576Z,19.72
2022-08-21T03:13:26.364Z,19.74
2022-08-21T03:16:35.028Z,19.34
2022-08-21T03:19:41.507Z,19.25
2022-08-21T03:22:52.868Z,19.46
2022-08-21T03:25:59.506Z,19.51
2022-08-21T03:29:08.449Z,19.39
2022-08-21T03:32:14.950Z,19.01
2022-08-21T03:35:21.880Z,19.05
2022-08-21T03:38:30.063Z,18.95
2022-08-21T03:41:36.289Z,19.25
2022-08-21T03:44:43.736Z,19.51
2022-08-21T03:47:55.075Z,19.55
2022-08-21T03:51:01.387Z,19.85
2022-08-21T03:54:07.725Z,19.52
2022-08-21T03:57:14.476Z,19.12
2022-08-21T04:00:22.687Z,19.21
2022-08-21T04:03:29.519Z,19.14
2022-08-21T04:06:37.887Z,19.84
2022-08-21T04:09:44.316Z,19.69
2022-08-21T04:12:50.604Z,19.86
2022-08-21T04:15:59.130Z,19.74
2022-08-21T04:19:05.757Z,19.75
2022-08-21T04:22:12.348Z,19.78
2022-08-21T04:25:19.963Z,19.91
2022-08-21T04:28:29.192Z,20.00
2022-08-21T04:31:39.084Z,19.97
2022-08-21T04:34:45.400Z,19.98
2022-08-21T04:37:51.920Z,19.86
2022-08-21T04:40:58.175Z,19.61
2022-08-21T04:44:05.425Z,19.82
2022-08-21T04:47:13.133Z,19.87
2022-08-21T04:50:19.906Z,19.85
2022-08-21T04:53:36.083Z,20.04
2022-08-21T04:56:46.469Z,19.18
2022-08-21T04:59:54.016Z,19.65
2022-08-21T05:03:03.518Z,19.83
2022-08-21T05:06:12.971Z,19.11
2022-08-21T05:09:20.904Z,19.29
2022-08-21T05:12:27.209Z,19.18
2022-08-21T05:15:33.441Z,19.32
2022-08-21T05:18:41.079Z,19.58
2022-08-21T05:21:49.467Z,19.50
2022-08-21T05:24:55.926Z,19.30
2022-08-21T05:28:02.082Z,20.07
2022-08-21T05:31:09.143Z,20.09
2022-08-21T05:34:21.704Z,20.02
2022-08-21T05:37:27.726Z,20.20
2022-08-21T05:40:34.282Z,19.93
2022-08-21T05:43:40.525Z,20.07
2022-08-21T05:46:46.907Z,20.18
2022-08-21T05:49:54.438Z,20.11
2022-08-21T05:53:06.924Z,19.60
2022-08-21T05:56:15.758Z,19.72
2022-08-21T05:59:22.006Z,20.27
2022-08-21T06:02:28.442Z,20.06
2022-08-21T06:05:37.283Z,20.31
2022-08-21T06:08:44.147Z,20.32
2022-08-21T06:11:50.371Z,20.29
2022-08-21T06:14:56.984Z,20.71
2022-08-21T06:18:03.075Z,20.85
2022-08-21T06:21:12.471Z,20.68
2022-08-21T06:24:18.592Z,20.49
2022-08-21T06:27:26.753Z,20.26
2022-08-21T06:30:33.428Z,20.25
2022-08-21T06:33:39.810Z,20.18
2022-08-21T06:36:47.909Z,20.39
2022-08-21T06:39:54.331Z,20.26
2022-08-21T06:43:07.247Z,20.65
2022-08-21T06:46:13.347Z,20.69
2022-08-21T06:49:21.525Z,20.89
2022-08-21T06:52:29.220Z,21.18
2022-08-21T06:55:35.569Z,21.07
2022-08-21T06:58:41.872Z,21.24
2022-08-21T07:01:48.128Z,21.39
2022-08-21T07:04:54.442Z,21.42
2022-08-21T07:08:02.215Z,21.36
2022-08-21T07:11:15.290Z,21.63
2022-08-21T07:14:21.863Z,21.71
2022-08-21T07:17:27.951Z,21.65
2022-08-21T07:20:34.775Z,21.65
2022-08-21T07:23:44.331Z,22.18
2022-08-21T07:26:50.778Z,21.65
2022-08-21T07:29:56.737Z,21.93
2022-08-21T07:33:03.098Z,21.44
2022-08-21T07:36:10.175Z,21.71
2022-08-21T07:39:18.149Z,22.75
2022-08-21T07:42:24.675Z,22.42
2022-08-21T07:45:32.019Z,22.98
2022-08-21T07:48:38.897Z,22.76
2022-08-21T07:51:45.205Z,22.56
2022-08-21T07:54:53.071Z,22.40
2022-08-21T07:57:59.568Z,22.45
2022-08-21T08:01:07.059Z,22.91
2022-08-21T08:04:13.583Z,23.56
2022-08-21T08:07:20.254Z,23.64
2022-08-21T08:10:28.279Z,23.55
2022-08-21T08:13:40.229Z,23.45
2022-08-21T08:16:46.615Z,23.11
2022-08-21T08:19:53.245Z,23.57
2022-08-21T08:22:59.862Z,23.47
2022-08-21T08:26:08.012Z,23.38
2022-08-21T08:29:14.322Z,23.24
2022-08-21T08:32:21.406Z,23.67
2022-08-21T08:35:29.935Z,23.89
2022-08-21T08:38:37.736Z,23.22
2022-08-21T08:41:52.196Z,23.86
2022-08-21T08:45:08.774Z,24.12
2022-08-21T08:48:34.372Z,23.59
2022-08-21T08:51:47.694Z,23.51
2022-08-21T08:55:05.607Z,23.50
2022-08-21T08:58:19.074Z,23.53
2022-08-21T09:01:25.266Z,22.82
2022-08-21T09:04:34.739Z,22.40
2022-08-21T09:07:48.916Z,23.28
2022-08-21T09:11:06.076Z,22.55
2022-08-21T09:14:19.299Z,22.72
2022-08-21T09:17:38.796Z,22.34
2022-08-21T09:21:05.380Z,23.00
2022-08-21T09:24:27.183Z,21.97
2022-08-21T09:27:34.075Z,22.87
2022-08-21T09:30:43.248Z,22.99
2022-08-21T09:33:49.579Z,22.80
2022-08-21T09:36:56.044Z,23.39
2022-08-21T09:40:16.726Z,23.40
2022-08-21T09:43:26.458Z,23.16
2022-08-21T09:46:34.936Z,22.93
2022-08-21T09:49:43.820Z,22.83
2022-08-21T09:52:56.830Z,22.70
2022-08-21T09:56:24.341Z,22.94
2022-08-21T09:59:36.707Z,23.47
2022-08-21T10:02:45.071Z,24.04
2022-08-21T10:06:02.967Z,23.95
2022-08-21T10:09:18.771Z,23.80
2022-08-21T10:12:35.642Z,24.24
2022-08-21T10:15:53.311Z,23.69
2022-08-21T10:19:14.548Z,23.79
2022-08-21T10:22:32.435Z,23.75
2022-08-21T10:25:57.002Z,23.32
2022-08-21T10:29:26.867Z,23.50
2022-08-21T10:32:46.642Z,22.89
2022-08-21T10:36:04.507Z,23.46
2022-08-21T10:39:35.061Z,22.78
2022-08-21T10:42:51.683Z,22.75
2022-08-21T10:46:09.440Z,22.77
2022-08-21T10:49:24.367Z,22.58
2022-08-21T10:53:03.491Z,22.63
2022-08-21T10:56:17.629Z,22.44
2022-08-21T10:59:29.311Z,22.54
2022-08-21T11:02:41.716Z,22.28
2022-08-21T11:05:53.131Z,22.79
2022-08-21T11:09:13.874Z,22.95
2022-08-21T11:12:29.554Z,22.84
2022-08-21T11:15:41.081Z,22.62
2022-08-21T11:18:51.487Z,22.69
2022-08-21T11:22:04.695Z,22.73
2022-08-21T11:25:19.881Z,22.84
2022-08-21T11:28:30.897Z,22.88
2022-08-21T11:31:50.186Z,22.95
2022-08-21T11:35:05.751Z,21.89
2022-08-21T11:38:24.487Z,21.82
2022-08-21T11:41:39.729Z,21.99
2022-08-21T11:44:53.645Z,22.46
2022-08-21T11:48:10.013Z,22.20
2022-08-21T11:51:22.182Z,23.11
2022-08-21T11:54:33.143Z,22.53
2022-08-21T11:57:46.842Z,22.02
2022-08-21T12:00:56.919Z,22.66
2022-08-21T12:04:06.571Z,22.91
2022-08-21T12:07:15.668Z,22.08
2022-08-21T12:10:33.107Z,22.79
2022-08-21T12:13:54.933Z,22.63
2022-08-21T12:17:08.859Z,22.37
2022-08-21T12:20:27.730Z,21.78
2022-08-21T12:23:38.006Z,21.38
2022-08-21T12:26:51.928Z,21.35
2022-08-21T12:30:03.453Z,22.15
2022-08-21T12:33:24.388Z,22.65
2022-08-21T12:36:44.044Z,22.15
2022-08-21T12:39:53.509Z,22.44
2022-08-21T12:43:03.514Z,22.05
2022-08-21T12:46:19.472Z,22.84
2022-08-21T12:49:33.293Z,22.79
2022-08-21T12:52:47.020Z,21.91
2022-08-21T12:55:53.561Z,21.78
2022-08-21T12:59:06.129Z,21.96
2022-08-21T13:02:19.708Z,21.99
2022-08-21T13:05:36.995Z,22.15
2022-08-21T13:08:47.337Z,21.61
2022-08-21T13:11:54.553Z,22.13
2022-08-21T13:15:04.395Z,22.59
2022-08-21T13:18:25.550Z,22.95
2022-08-21T13:21:35.182Z,22.60
2022-08-21T13:24:43.188Z,22.62
2022-08-21T13:28:01.406Z,22.53
2022-08-21T13:31:11.974Z,22.56
2022-08-21T13:34:22.043Z,22.62
2022-08-21T13:37:30.368Z,22.64
2022-08-21T13:40:48.208Z,22.77
2022-08-21T13:44:00.938Z,22.80
2022-08-21T13:47:08.664Z,22.65
2022-08-21T13:50:18.747Z,22.64
2022-08-21T13:53:32.087Z,22.77
2022-08-21T13:56:46.704Z,22.66
2022-08-21T13:59:56.140Z,23.02
2022-08-21T14:03:08.162Z,22.80
2022-08-21T14:06:19.339Z,22.45
2022-08-21T14:09:30.460Z,22.82
2022-08-21T14:12:43.127Z,23.06
2022-08-21T14:15:57.588Z,22.94
2022-08-21T14:19:13.010Z,22.80
2022-08-21T14:22:39.138Z,22.71
2022-08-21T14:25:47.890Z,22.64
2022-08-21T14:28:53.869Z,23.36
2022-08-21T14:32:02.335Z,23.53
2022-08-21T14:35:11.994Z,23.55
2022-08-21T14:38:22.918Z,23.10
2022-08-21T14:41:30.895Z,22.93
2022-08-21T14:44:37.617Z,22.73
2022-08-21T14:47:45.016Z,22.56
2022-08-21T14:50:51.350Z,23.01
2022-08-21T14:53:59.055Z,23.33
2022-08-21T14:57:09.926Z,23.27
2022-08-21T15:00:19.534Z,23.01
2022-08-21T15:03:26.556Z,23.20
2022-08-21T15:06:32.923Z,23.45
2022-08-21T15:09:40.528Z,23.28
2022-08-21T15:12:46.810Z,23.27
2022-08-21T15:15:54.198Z,23.48
2022-08-21T15:19:01.071Z,22.77
2022-08-21T15:22:15.568Z,22.76
2022-08-21T15:25:26.718Z,23.12
2022-08-21T15:28:33.243Z,23.17
2022-08-21T15:31:51.332Z,23.28
2022-08-21T15:34:58.538Z,23.19
2022-08-21T15:38:05.559Z,22.73
2022-08-21T15:41:20.374Z,23.17
2022-08-21T15:44:28.489Z,23.19
2022-08-21T15:47:37.533Z,23.43
2022-08-21T15:50:43.807Z,23.84
2022-08-21T15:53:49.775Z,23.99
2022-08-21T15:56:57.323Z,23.84
2022-08-21T16:00:13.415Z,23.96
2022-08-21T16:03:22.906Z,23.17
2022-08-21T16:06:37.476Z,23.36
2022-08-21T16:09:45.371Z,23.61
2022-08-21T16:12:58.318Z,23.65
2022-08-21T16:16:05.415Z,23.61
2022-08-21T16:19:13.612Z,23.32
2022-08-21T16:22:19.839Z,23.42
2022-08-21T16:25:26.582Z,23.02
2022-08-21T16:28:37.007Z,23.15
2022-08-21T16:31:43.720Z,23.17
2022-08-21T16:34:51.451Z,23.24
2022-08-21T16:37:58.150Z,22.98
2022-08-21T16:41:04.566Z,22.86
2022-08-21T16:44:14.160Z,22.86
2022-08-21T16:47:26.341Z,22.83
2022-08-21T16:50:33.535Z,22.55
2022-08-21T16:53:39.791Z,22.30
2022-08-21T16:56:48.031Z,22.51
2022-08-21T16:59:56.780Z,22.39
2022-08-21T17:03:03.183Z,22.23
2022-08-21T17:06:10.573Z,22.01
2022-08-21T17:09:17.152Z,22.08
2022-08-21T17:12:24.234Z,22.26
2022-08-21T17:15:35.160Z,22.12
2022-08-21T17:18:41.451Z,22.02
2022-08-21T17:21:47.893Z,21.55
2022-08-21T17:24:54.473Z,22.03
2022-08-21T17:28:01.479Z,21.81
2022-08-21T17:31:10.994Z,21.52
2022-08-21T17:34:17.566Z,21.29
2022-08-21T17:37:28.635Z,21.22
2022-08-21T17:40:36.235Z,20.94
2022-08-21T17:43:44.516Z,21.26
2022-08-21T17:46:52.054Z,21.08
2022-08-21T17:49:58.254Z,21.14
2022-08-21T17:53:04.746Z,21.25
2022-08-21T17:56:11.214Z,21.14
2022-08-21T17:59:17.531Z,21.49
2022-08-21T18:02:25.794Z,21.36
2022-08-21T18:05:32.258Z,21.31
2022-08-21T18:08:38.780Z,21.19
2022-08-21T18:11:45.391Z,21.52
2022-08-21T18:14:52.249Z,21.07
2022-08-21T18:18:00.441Z,21.16
2022-08-21T18:21:07.611Z,21.55
2022-08-21T18:24:14.743Z,21.44
2022-08-21T18:27:26.685Z,21.25
2022-08-21T18:30:41.394Z,21.02
2022-08-21T18:33:57.796Z,21.21
2022-08-21T18:37:05.579Z,21.13
2022-08-21T18:40:12.512Z,20.94
2022-08-21T18:43:19.311Z,20.40
2022-08-21T18:46:26.622Z,20.52
2022-08-21T18:49:34.330Z,21.03
2022-08-21T18:52:45.738Z,21.02
2022-08-21T18:56:05.480Z,21.12
2022-08-21T18:59:13.504Z,21.22
2022-08-21T19:02:19.599Z,20.91
2022-08-21T19:05:28.184Z,20.76
2022-08-21T19:08:34.342Z,20.69
2022-08-21T19:11:43.243Z,20.66
2022-08-21T19:14:50.658Z,20.74
2022-08-21T19:18:00.385Z,20.78
2022-08-21T19:21:07.967Z,20.55
2022-08-21T19:24:17.470Z,20.64
2022-08-21T19:27:24.498Z,20.62
2022-08-21T19:30:31.771Z,20.67
2022-08-21T19:33:44.302Z,20.49
2022-08-21T19:36:52.351Z,20.57
2022-08-21T19:39:58.677Z,20.53
2022-08-21T19:43:05.293Z,20.57
2022-08-21T19:46:26.992Z,20.38
2022-08-21T19:49:35.707Z,20.50
2022-08-21T19:52:57.102Z,20.55
2022-08-21T19:56:03.673Z,20.32
2022-08-21T19:59:10.742Z,20.31
2022-08-21T20:02:19.756Z,20.57
2022-08-21T20:05:25.936Z,20.67
2022-08-21T20:08:48.689Z,20.74
2022-08-21T20:11:58.753Z,20.83
2022-08-21T20:15:07.764Z,20.34
2022-08-21T20:18:14.118Z,20.21
2022-08-21T20:21:20.752Z,19.96
2022-08-21T20:24:28.699Z,20.17
2022-08-21T20:27:40.611Z,19.96
2022-08-21T20:30:48.397Z,19.40
2022-08-21T20:33:54.713Z,19.88
2022-08-21T20:37:01.380Z,19.63
2022-08-21T20:40:12.401Z,19.43
2022-08-21T20:43:20.546Z,19.09
2022-08-21T20:46:29.083Z,19.31
2022-08-21T20:49:39.748Z,19.90
2022-08-21T20:52:49.959Z,19.61
2022-08-21T20:56:00.465Z,19.79
2022-08-21T20:59:16.188Z,19.55
2022-08-21T21:02:41.376Z,18.87
2022-08-21T21:05:53.103Z,19.30
2022-08-21T21:09:08.514Z,18.88
2022-08-21T21:12:27.941Z,19.54
2022-08-21T21:15:54.653Z,19.72
2022-08-21T21:19:07.036Z,19.34
2022-08-21T21:22:21.761Z,19.76
2022-08-21T21:25:39.882Z,19.76
2022-08-21T21:28:56.008Z,19.82
2022-08-21T21:32:03.022Z,19.88
2022-08-21T21:35:12.778Z,20.14
2022-08-21T21:38:26.154Z,20.01
2022-08-21T21:41:36.719Z,20.16
2022-08-21T21:45:14.517Z,20.12
2022-08-21T21:48:29.275Z,19.90
2022-08-21T21:51:48.039Z,20.11
2022-08-21T21:55:33.654Z,19.92
2022-08-21T21:59:01.746Z,19.97
2022-08-21T22:02:26.779Z,19.96
2022-08-21T22:05:47.536Z,20.09
2022-08-21T22:09:00.831Z,20.03
2022-08-21T22:12:20.006Z,20.02
2022-08-21T22:15:27.787Z,20.06
2022-08-21T22:18:45.215Z,20.04
2022-08-21T22:21:58.118Z,19.89
2022-08-21T22:25:09.721Z,19.31
2022-08-21T22:28:25.371Z,19.94
2022-08-21T22:31:34.990Z,19.97
2022-08-21T22:35:02.393Z,20.17
2022-08-21T22:38:20.701Z,19.42
2022-08-21T22:41:32.279Z,19.55
2022-08-21T22:44:51.091Z,19.70
2022-08-21T22:48:06.127Z,20.05
2022-08-21T22:55:02.731Z,20.06
2022-08-21T22:58:14.164Z,19.87
2022-08-21T23:01:34.024Z,19.95
2022-08-21T23:04:48.951Z,20.04
2022-08-21T23:07:58.036Z,19.92
2022-08-21T23:11:06.336Z,19.87
2022-08-21T23:14:14.195Z,19.89
2022-08-21T23:17:28.255Z,19.94
2022-08-21T23:20:40.891Z,19.94
2022-08-21T23:24:03.479Z,19.63
2022-08-21T23:27:19.071Z,20.03
2022-08-21T23:30:35.636Z,19.86
2022-08-21T23:33:56.259Z,19.96
2022-08-21T23:37:48.815Z,19.94
2022-08-21T23:41:04.015Z,19.77
2022-08-21T23:44:29.536Z,20.06
2022-08-21T23:47:51.070Z,20.04
2022-08-21T23:51:20.128Z,20.01
2022-08-21T23:54:35.221Z,20.09
2022-08-21T23:57:57.757Z,19.74
